Flight Track Log - Related Links

Times and Time Zones

All times are in EDT time to prevent confusion due to time zone crossing. See the N960DL flight status page for this flight to view local times or setup timezone preferences in your user account.

Time Position Orientation Groundspeed Altitude Reporting Facility
EDT Latitude Longitude Course Direction KTS MPH feet Rate Location/Type
Tue 05:40:08 PM 36.1167 -86.6833 180° South 136 157 1,500  Level Nashville TRACON
Tue 05:40:38 PM 36.1000 -86.6833 180° South 161 185 2,300 2,200 Climbing Nashville TRACON
Tue 05:41:38 PM 36.0333 -86.6833 180° South 251 289 4,800 2,897 Climbing Nashville TRACON
Tue 05:42:34 PM 35.9700 -86.6586 162° South 276 318 7,900 2,948 Climbing Memphis Center
Tue 05:43:00 PM 35.8415 -86.4133 152° Southeast  Level Estimated
Tue 05:43:34 PM 35.9017 -86.6078 149° Southeast 303 349 10,500  Level Memphis Center
Tue 05:44:00 PM 35.7707 -86.3473 165° South  Level Estimated
Tue 05:44:34 PM 35.8161 -86.5400 147° Southeast 333 383 11,500  Level Memphis Center
Tue 05:45:00 PM 35.6998 -86.2815 180° South  Level Estimated
Tue 05:45:34 PM 35.7219 -86.4575 145° Southeast 390 449 14,600  Level Memphis Center
Tue 05:46:34 PM 35.6083 -86.4247 167° South 411 473 16,900 2,400 Climbing Memphis Center
Tue 05:47:34 PM 35.4886 -86.4022 171° South 433 498 19,400 2,182 Climbing Memphis Center
Tue 05:49:41 PM 35.2447 -86.3072 162° South 468 539 23,700 1,797 Climbing Atlanta Center
Tue 05:50:41 PM 35.1247 -86.2431 156° South 474 545 25,000 650 Climbing Atlanta Center
Tue 05:51:41 PM 35.0031 -86.1661 153° Southeast 474 545 25,000  Level Atlanta Center
Tue 05:52:41 PM 34.9069 -86.0422 133° Southeast 490 564 25,000 -200 Level Atlanta Center
Tue 05:53:41 PM 34.8089 -85.9208 135° Southeast 490 564 24,600 -500 Descending Atlanta Center
Tue 05:54:41 PM 34.6972 -85.8528 153° Southeast 490 564 24,000 -300 Descending Atlanta Center
Tue 05:55:41 PM 34.5847 -85.8403 175° South 434 499 24,000 500 Level Atlanta Center
Tue 05:56:41 PM 34.4764 -85.8128 168° South 409 471 25,000 -1,700 Climbing Atlanta Center
Tue 05:57:41 PM 34.4156 -85.6956 122° Southeast 378 435 20,600 -2,850 Descending Atlanta Center
Tue 05:58:41 PM 34.3628 -85.5764 118° Southeast 378 435 19,300 -1,400 Descending Atlanta Center
Tue 05:59:41 PM 34.3119 -85.4622 118° Southeast 383 441 17,800 -1,400 Descending Atlanta Center
Tue 06:00:41 PM 34.2653 -85.3483 116° Southeast 378 435 16,500 -1,400 Descending Atlanta Center
Tue 06:01:41 PM 34.2164 -85.2419 119° Southeast 372 428 15,000 -1,400 Descending Atlanta Center
Tue 06:02:41 PM 34.1692 -85.1386 119° Southeast 360 414 13,700 -900 Descending Atlanta Center
Tue 06:03:41 PM 34.1094 -85.0500 129° Southeast 345 397 13,200 -750 Descending Atlanta Center
Tue 06:04:41 PM 34.0369 -84.9739 139° Southeast 321 369 12,200 -1,150 Descending Atlanta Center
Tue 06:05:41 PM 33.9494 -84.9528 169° South 311 358 10,900 -1,350 Descending Atlanta Center
Tue 06:06:41 PM 33.8681 -84.9444 175° South 305 351 9,500 -950 Descending Atlanta Center
Tue 06:07:41 PM 33.7889 -84.9361 175° South 293 337 9,000 -850 Descending Atlanta Center
Tue 06:08:41 PM 33.7139 -84.9153 167° South 287 330 7,800 -1,143 Descending Atlanta Center
Tue 06:09:26 PM 33.6667 -84.8667 139° Southeast 281 323 7,000 -649 Descending Atlanta TRACON
Tue 06:10:32 PM 33.6333 -84.7833 116° Southeast 247 284 6,600 -800 Descending Atlanta TRACON
Tue 06:11:26 PM 33.6333 -84.7167 90° East 236 272 5,400 -1,263 Descending Atlanta TRACON
Tue 06:12:26 PM 33.6333 -84.6500 90° East 206 237 4,200 -1,200 Descending Atlanta TRACON

Login

Don't have an account? Register now (free) for customized features, flight alerts, and more!